Terminal Aerodrome Forecast
Issued by NWS

Home | Current Version | Previous Version | Graphics & Text | Print | Product List | Glossary On
Versions: 1 2 3 4 5 6 7 8 9 10 11 12 13 14 15 16 17 18 19 20
263
FTUS43 KUNR 240525
TAFGCC
TAF
KGCC 240525Z 2406/2506 23018G28KT P6SM SCT200
     FM241100 33024G36KT P6SM BKN040
     FM241900 33015G25KT P6SM SCT200
     FM242300 31010KT P6SM SCT200=

USA.gov is the U.S. government's official web portal to all federal, state and local government web resources and services.